Time;durP1;ratioP1;P1;durP2;ratioP2;P2;SDS_P1;SDS_P2;PMS_P1;PMS_P2;Temp;Humidity;BMP_temperature;BMP_pressure;BME280_temperature;BME280_humidity;BME280_pressure;Samples;Min_cycle;Max_cycle;Signal;HPM_P1;HPM_P2
2022/04/29 00:00:18;;;;;;;13.98;11.68;;;11.60;72.50;;;;;;5056600;28;20250;-86
2022/04/29 00:02:45;;;;;;;21.92;11.95;;;11.40;73.80;;;;;;5051910;28;20562;-87
2022/04/29 00:05:12;;;;;;;16.58;11.65;;;11.40;74.20;;;;;;5063095;28;20246;-86
2022/04/29 00:07:39;;;;;;;17.52;11.60;;;11.30;74.60;;;;;;5065870;28;20667;-85
2022/04/29 00:10:14;;;;;;;15.90;10.43;;;11.30;74.10;;;;;;5014670;28;1340255;-87
2022/04/29 00:12:46;;;;;;;30.63;11.68;;;11.30;73.90;;;;;;5057747;28;20184;-87
2022/04/29 00:15:13;;;;;;;13.95;10.48;;;11.40;73.40;;;;;;5057258;28;20225;-86
2022/04/29 00:17:40;;;;;;;20.20;12.70;;;11.40;73.40;;;;;;5074636;28;20233;-86
2022/04/29 00:20:07;;;;;;;18.90;13.85;;;11.40;73.80;;;;;;5056296;28;20807;-88
2022/04/29 00:22:34;;;;;;;22.38;12.00;;;11.30;75.30;;;;;;5057101;28;20206;-86
2022/04/29 00:25:00;;;;;;;15.32;10.85;;;11.20;75.60;;;;;;5057232;28;20185;-87
2022/04/29 00:27:26;;;;;;;25.17;12.33;;;11.10;75.50;;;;;;5060645;28;20259;-87
2022/04/29 00:29:52;;;;;;;19.13;12.50;;;11.10;75.70;;;;;;5083406;28;20464;-87
2022/04/29 00:32:18;;;;;;;20.27;13.03;;;11.20;75.70;;;;;;5085029;28;20190;-87
2022/04/29 00:34:43;;;;;;;13.85;10.35;;;11.20;75.20;;;;;;5078379;28;20423;-87
2022/04/29 00:37:10;;;;;;;17.07;12.07;;;11.20;74.40;;;;;;5058478;28;20267;-86
2022/04/29 00:39:37;;;;;;;13.35;10.73;;;11.20;73.70;;;;;;5064181;28;20184;-86
2022/04/29 00:42:13;;;;;;;17.00;13.23;;;11.20;73.50;;;;;;5078751;28;20180;-86
2022/04/29 00:44:41;;;;;;;15.43;11.90;;;11.20;74.00;;;;;;5057172;28;20176;-87
2022/04/29 00:47:21;;;;;;;17.75;11.57;;;11.20;74.80;;;;;;5056710;28;20185;-87
2022/04/29 00:49:48;;;;;;;28.73;14.10;;;11.10;75.30;;;;;;5051236;28;21820;-87
2022/04/29 00:52:16;;;;;;;19.77;12.32;;;11.10;75.70;;;;;;5041768;28;20257;-86
2022/04/29 00:54:48;;;;;;;19.77;12.65;;;11.00;75.80;;;;;;5055886;28;20176;-87
2022/04/29 00:57:20;;;;;;;19.98;12.10;;;11.00;75.70;;;;;;5055689;28;20177;-87
2022/04/29 01:00:03;;;;;;;20.63;12.40;;;11.10;75.00;;;;;;5055507;28;20229;-87
2022/04/29 01:02:29;;;;;;;20.33;11.52;;;11.10;75.10;;;;;;5046881;28;20740;-87
2022/04/29 01:05:08;;;;;;;13.60;10.73;;;11.00;74.50;;;;;;5046535;28;20196;-87
2022/04/29 01:07:35;;;;;;;20.98;11.50;;;11.00;74.20;;;;;;5057168;28;20479;-86
2022/04/29 01:10:02;;;;;;;12.88;10.75;;;11.00;74.60;;;;;;5055807;28;20216;-86
2022/04/29 01:12:33;;;;;;;16.75;11.35;;;11.00;74.40;;;;;;5057641;28;20192;-86
2022/04/29 01:15:20;;;;;;;14.80;10.93;;;11.10;73.10;;;;;;5080233;28;20184;-87
2022/04/29 01:17:52;;;;;;;18.15;10.98;;;11.00;73.20;;;;;;5065262;28;20226;-86
2022/04/29 01:20:20;;;;;;;16.20;11.38;;;11.00;74.10;;;;;;5066061;28;20232;-86
2022/04/29 01:22:46;;;;;;;19.13;12.00;;;11.00;74.40;;;;;;5047182;28;20211;-87
2022/04/29 01:25:12;;;;;;;20.77;11.57;;;11.00;74.20;;;;;;5043702;28;20656;-86
2022/04/29 01:27:39;;;;;;;14.95;11.02;;;11.00;74.00;;;;;;5060529;28;20180;-87
2022/04/29 01:30:13;;;;;;;16.80;9.85;;;11.00;73.70;;;;;;5056847;28;22015;-86
2022/04/29 01:32:53;;;;;;;18.70;11.35;;;11.00;73.70;;;;;;5077495;28;20541;-86
2022/04/29 01:35:19;;;;;;;18.08;10.93;;;10.90;74.50;;;;;;5059079;28;20259;-86
2022/04/29 01:37:45;;;;;;;19.53;11.70;;;11.00;74.70;;;;;;5077130;28;20217;-86
2022/04/29 01:40:12;;;;;;;17.98;11.32;;;10.80;74.80;;;;;;5059649;28;20199;-86
2022/04/29 01:42:39;;;;;;;20.20;10.65;;;10.90;74.40;;;;;;5059957;28;20192;-86
2022/04/29 01:45:05;;;;;;;20.40;10.38;;;10.80;74.60;;;;;;5051856;28;20200;-86
2022/04/29 01:47:31;;;;;;;14.45;9.98;;;10.80;74.40;;;;;;5059380;28;20661;-86
2022/04/29 01:49:56;;;;;;;20.40;10.80;;;10.80;74.30;;;;;;5059001;28;20283;-86
2022/04/29 01:52:22;;;;;;;16.03;10.90;;;10.90;73.00;;;;;;5059160;28;20196;-86
2022/04/29 01:54:48;;;;;;;13.83;9.80;;;10.90;72.50;;;;;;5056703;28;20267;-86
2022/04/29 01:57:14;;;;;;;15.63;10.17;;;10.90;72.90;;;;;;5083242;28;20418;-85
2022/04/29 01:59:40;;;;;;;13.50;10.20;;;10.80;73.40;;;;;;5070308;28;20177;-86
2022/04/29 02:02:09;;;;;;;16.95;11.35;;;10.80;73.40;;;;;;5062775;28;20312;-86
2022/04/29 02:04:37;;;;;;;16.95;11.30;;;10.80;73.00;;;;;;5072407;28;20272;-85
2022/04/29 02:07:06;;;;;;;17.40;11.70;;;10.80;73.60;;;;;;5081036;28;20206;-85
2022/04/29 02:09:33;;;;;;;19.65;11.93;;;10.80;73.10;;;;;;5078999;28;20192;-86
2022/04/29 02:12:05;;;;;;;16.50;11.50;;;10.70;73.80;;;;;;5067436;28;20207;-86
2022/04/29 02:14:42;;;;;;;15.20;11.93;;;10.60;73.80;;;;;;5072347;28;20191;-86
2022/04/29 02:17:09;;;;;;;14.68;11.52;;;10.70;73.50;;;;;;5063224;28;20604;-86
2022/04/29 02:19:36;;;;;;;20.52;11.77;;;10.80;72.90;;;;;;5075777;28;20208;-86
2022/04/29 02:22:04;;;;;;;16.90;10.75;;;10.80;72.70;;;;;;5055426;28;20192;-86
2022/04/29 02:24:31;;;;;;;17.33;11.27;;;10.70;72.80;;;;;;5069449;28;20549;-86
2022/04/29 02:26:59;;;;;;;16.30;11.13;;;10.70;73.00;;;;;;5060528;28;20180;-87
2022/04/29 02:29:27;;;;;;;19.23;10.55;;;10.70;73.20;;;;;;5078647;28;20205;-87
2022/04/29 02:31:53;;;;;;;13.50;10.02;;;10.60;74.50;;;;;;5048943;28;20227;-87
2022/04/29 02:34:19;;;;;;;18.13;10.48;;;10.60;74.20;;;;;;5082790;28;20169;-86
2022/04/29 02:36:46;;;;;;;14.50;10.40;;;10.60;73.50;;;;;;5086382;28;20676;-86
2022/04/29 02:39:13;;;;;;;16.17;10.10;;;10.60;73.90;;;;;;5067695;28;20426;-87
2022/04/29 02:41:40;;;;;;;18.63;10.43;;;10.60;73.10;;;;;;5078447;28;20201;-86
2022/04/29 02:44:05;;;;;;;14.23;10.32;;;10.60;73.20;;;;;;5058100;28;20279;-85
2022/04/29 02:46:36;;;;;;;15.80;10.30;;;10.60;73.10;;;;;;5054642;28;20220;-85
2022/04/29 02:49:02;;;;;;;20.58;10.73;;;10.60;73.10;;;;;;5054066;28;20808;-85
2022/04/29 02:51:27;;;;;;;17.13;9.65;;;10.60;73.10;;;;;;5057166;28;20303;-85
2022/04/29 02:53:53;;;;;;;19.90;11.37;;;10.50;73.10;;;;;;5072743;28;20640;-85
2022/04/29 02:56:19;;;;;;;15.53;10.23;;;10.60;73.20;;;;;;5076471;28;20569;-85
2022/04/29 02:58:45;;;;;;;16.25;10.50;;;10.50;73.50;;;;;;5044649;28;20256;-85
2022/04/29 03:01:11;;;;;;;16.03;10.93;;;10.50;74.00;;;;;;5052652;28;20250;-85
2022/04/29 03:06:58;;;;;;;18.45;10.10;;;10.50;74.00;;;;;;5075610;28;20438;-85
2022/04/29 03:09:25;;;;;;;15.57;10.13;;;10.50;73.20;;;;;;5069556;28;20200;-85
2022/04/29 03:11:51;;;;;;;14.50;9.10;;;10.50;73.10;;;;;;5058655;28;20188;-84
2022/04/29 03:14:17;;;;;;;15.20;10.52;;;10.40;74.20;;;;;;5076357;28;20252;-84
2022/04/29 03:16:43;;;;;;;14.93;10.30;;;10.40;73.50;;;;;;5058946;28;20175;-84
2022/04/29 03:19:09;;;;;;;16.33;9.88;;;10.30;74.40;;;;;;5054640;28;20562;-83
2022/04/29 03:21:35;;;;;;;17.65;10.88;;;10.30;73.80;;;;;;5075595;28;20201;-84
2022/04/29 03:24:03;;;;;;;14.95;10.73;;;10.40;73.50;;;;;;5057481;28;20176;-83
2022/04/29 03:26:40;;;;;;;14.75;10.02;;;10.30;73.30;;;;;;5038985;28;20180;-83
2022/04/29 03:29:06;;;;;;;16.23;9.32;;;10.40;73.00;;;;;;5055355;28;20208;-84
2022/04/29 03:31:32;;;;;;;17.10;9.63;;;10.30;73.40;;;;;;5057142;28;20253;-84
2022/04/29 03:33:58;;;;;;;21.20;11.20;;;10.30;73.10;;;;;;5074949;28;20521;-84
2022/04/29 03:36:23;;;;;;;20.42;10.10;;;10.20;74.10;;;;;;5058008;28;20176;-84
2022/04/29 03:38:49;;;;;;;20.77;10.33;;;10.20;73.90;;;;;;5059539;28;20187;-85
2022/04/29 03:41:15;;;;;;;14.33;9.70;;;10.20;74.00;;;;;;5057295;28;20230;-85
2022/04/29 03:43:41;;;;;;;17.43;10.80;;;10.20;73.80;;;;;;5077844;28;20410;-85
2022/04/29 03:46:07;;;;;;;20.20;10.47;;;10.20;74.40;;;;;;5080965;28;20180;-84
2022/04/29 03:49:35;;;;;;;16.80;11.00;;;10.20;74.90;;;;;;5063756;28;20188;-85
2022/04/29 03:51:30;;;;;;;15.65;10.18;;;10.20;74.20;;;;;;5078181;28;20431;-84
2022/04/29 03:53:56;;;;;;;22.23;10.75;;;10.20;74.00;;;;;;5073683;28;20181;-85
2022/04/29 03:56:22;;;;;;;17.83;12.17;;;10.20;73.30;;;;;;5057973;28;20671;-85
2022/04/29 03:58:47;;;;;;;19.53;10.90;;;10.10;73.80;;;;;;5057172;28;20261;-87
2022/04/29 04:01:13;;;;;;;13.70;9.70;;;10.10;74.50;;;;;;5049702;28;20689;-84
2022/04/29 04:03:40;;;;;;;18.83;11.40;;;10.00;74.80;;;;;;5075608;28;20649;-85
2022/04/29 04:09:13;;;;;;;15.82;10.00;;;10.00;74.50;;;;;;5074892;28;20198;-85
2022/04/29 04:11:38;;;;;;;20.13;12.18;;;10.00;73.70;;;;;;5056074;28;20212;-85
2022/04/29 04:14:04;;;;;;;17.33;10.03;;;10.00;73.80;;;;;;5056907;28;20767;-86
2022/04/29 04:16:30;;;;;;;17.70;10.37;;;9.90;74.50;;;;;;5056867;28;20258;-85
2022/04/29 04:18:56;;;;;;;14.27;10.83;;;9.90;74.70;;;;;;5055999;28;20423;-86
2022/04/29 04:21:22;;;;;;;18.77;11.17;;;9.90;74.50;;;;;;5052487;28;20857;-86
2022/04/29 04:23:48;;;;;;;18.03;10.97;;;9.90;74.70;;;;;;5074830;28;20921;-86
2022/04/29 04:26:13;;;;;;;20.70;11.40;;;9.90;75.00;;;;;;5055558;28;20422;-86
2022/04/29 04:28:39;;;;;;;24.73;12.43;;;9.80;74.80;;;;;;5040782;28;20978;-86
2022/04/29 04:31:05;;;;;;;17.27;10.25;;;9.90;74.40;;;;;;5057179;28;20200;-86
2022/04/29 04:33:31;;;;;;;17.77;11.10;;;9.90;74.10;;;;;;5056896;28;20177;-86
2022/04/29 04:35:57;;;;;;;20.90;11.47;;;9.90;74.10;;;;;;5057344;28;20433;-86
2022/04/29 04:38:23;;;;;;;17.37;11.03;;;9.80;74.20;;;;;;5060256;28;20199;-86
2022/04/29 04:40:49;;;;;;;17.97;10.30;;;9.80;74.40;;;;;;5059464;28;20189;-85
2022/04/29 04:43:14;;;;;;;18.85;11.15;;;9.70;74.60;;;;;;5069942;28;20731;-85
2022/04/29 04:45:40;;;;;;;19.60;10.33;;;9.70;74.10;;;;;;5088468;28;20189;-86
2022/04/29 04:48:07;;;;;;;23.43;12.20;;;9.70;74.70;;;;;;5067485;28;20254;-86
2022/04/29 04:50:32;;;;;;;14.95;10.43;;;9.60;76.10;;;;;;5070657;28;20222;-86
2022/04/29 04:52:58;;;;;;;17.03;10.27;;;9.60;76.00;;;;;;5071444;28;20574;-85
2022/04/29 04:55:24;;;;;;;26.47;11.57;;;9.60;75.70;;;;;;5067800;28;20422;-85
2022/04/29 04:57:50;;;;;;;19.43;10.00;;;9.70;75.60;;;;;;5062634;28;20185;-86
2022/04/29 05:00:17;;;;;;;17.83;10.53;;;9.60;75.50;;;;;;5061016;28;20192;-85
2022/04/29 05:02:42;;;;;;;13.93;8.90;;;9.60;76.70;;;;;;5066563;28;20418;-85
2022/04/29 05:05:09;;;;;;;20.37;11.90;;;9.70;75.50;;;;;;5068032;28;20188;-85
2022/04/29 05:07:38;;;;;;;18.80;11.02;;;9.60;75.80;;;;;;5090835;28;20164;-85
2022/04/29 05:10:10;;;;;;;17.83;11.45;;;9.70;75.40;;;;;;5067154;28;20216;-85
2022/04/29 05:12:41;;;;;;;14.95;10.75;;;9.80;74.80;;;;;;5060513;28;20233;-85
2022/04/29 05:15:07;;;;;;;23.10;12.15;;;9.80;74.40;;;;;;5060284;28;20188;-86
2022/04/29 05:17:33;;;;;;;18.17;11.45;;;9.80;74.60;;;;;;5058979;28;20176;-86
2022/04/29 05:19:59;;;;;;;18.90;11.10;;;9.80;74.70;;;;;;5082200;28;20260;-86
2022/04/29 05:22:31;;;;;;;17.10;10.33;;;9.80;74.80;;;;;;5061487;28;20183;-87
2022/04/29 05:24:57;;;;;;;18.80;10.45;;;9.80;74.90;;;;;;5081658;28;20471;-88
2022/04/29 05:27:23;;;;;;;19.80;11.10;;;9.90;73.90;;;;;;5078962;28;20176;-88
2022/04/29 05:29:49;;;;;;;19.80;10.90;;;9.90;73.90;;;;;;5059992;28;20303;-87
2022/04/29 05:32:18;;;;;;;24.13;11.40;;;9.90;74.20;;;;;;5075935;28;20227;-86
2022/04/29 05:34:45;;;;;;;24.90;12.48;;;9.90;74.00;;;;;;5058984;28;20204;-88
2022/04/29 05:37:12;;;;;;;23.00;11.70;;;9.90;73.80;;;;;;5058837;28;20172;-87
2022/04/29 05:42:23;;;;;;;24.33;11.05;;;10.00;73.40;;;;;;5076679;28;20214;-87
2022/04/29 05:44:49;;;;;;;21.17;12.05;;;10.00;73.90;;;;;;5058654;28;20644;-87
2022/04/29 05:47:15;;;;;;;16.70;10.75;;;10.10;73.60;;;;;;5058877;28;20184;-87
2022/04/29 05:49:41;;;;;;;19.60;10.05;;;10.10;73.10;;;;;;5055559;28;20202;-87
2022/04/29 05:52:09;;;;;;;17.23;10.07;;;10.10;72.60;;;;;;5056637;28;20180;-87
2022/04/29 05:54:35;;;;;;;22.10;11.60;;;10.10;73.10;;;;;;5096317;28;20172;-84
2022/04/29 05:57:03;;;;;;;22.50;13.43;;;10.20;72.60;;;;;;5059938;28;20203;-85
2022/04/29 05:59:35;;;;;;;18.85;10.68;;;10.20;72.60;;;;;;5055439;28;20181;-85
2022/04/29 06:02:00;;;;;;;16.13;11.10;;;10.10;72.60;;;;;;5067563;28;20642;-85
2022/04/29 06:04:26;;;;;;;19.77;11.13;;;10.10;72.70;;;;;;5079044;28;20180;-85
2022/04/29 06:06:52;;;;;;;17.83;11.60;;;10.20;73.20;;;;;;5059379;28;20188;-84
2022/04/29 06:09:18;;;;;;;21.07;10.73;;;10.20;73.60;;;;;;5060045;28;20879;-85
2022/04/29 06:11:45;;;;;;;16.10;10.53;;;10.30;72.80;;;;;;5065165;28;21066;-85
2022/04/29 06:14:11;;;;;;;19.70;11.63;;;10.50;71.60;;;;;;5065161;28;20212;-85
2022/04/29 06:16:36;;;;;;;13.10;9.87;;;10.60;70.80;;;;;;5072647;28;20173;-85
2022/04/29 06:19:02;;;;;;;19.07;11.40;;;10.70;70.90;;;;;;5056940;28;20434;-84
2022/04/29 06:21:28;;;;;;;20.90;11.37;;;10.70;71.70;;;;;;5075898;28;20264;-85
2022/04/29 06:23:54;;;;;;;21.30;12.47;;;10.80;71.50;;;;;;5058910;28;20965;-85
2022/04/29 06:26:19;;;;;;;23.30;12.50;;;10.90;71.00;;;;;;5097314;28;20176;-86
2022/04/29 06:28:45;;;;;;;14.97;10.10;;;11.00;70.00;;;;;;5098541;28;20199;-84
2022/04/29 06:31:12;;;;;;;16.83;11.13;;;11.20;69.40;;;;;;5079785;28;20195;-85
2022/04/29 06:33:38;;;;;;;18.25;10.98;;;11.30;69.00;;;;;;5079316;28;20183;-85
2022/04/29 06:36:11;;;;;;;21.17;12.38;;;11.50;67.60;;;;;;5079738;28;20201;-85
2022/04/29 06:38:36;;;;;;;24.63;14.05;;;11.60;67.20;;;;;;5078998;28;20164;-85
2022/04/29 06:41:02;;;;;;;22.37;12.00;;;11.60;67.80;;;;;;5078582;28;20199;-84
2022/04/29 06:43:29;;;;;;;22.43;11.43;;;11.40;69.20;;;;;;5082892;28;20187;-85
2022/04/29 06:45:55;;;;;;;17.05;11.90;;;11.30;69.50;;;;;;5086031;28;20253;-85
2022/04/29 06:48:21;;;;;;;18.83;11.67;;;11.40;69.20;;;;;;5078548;28;20809;-85
2022/04/29 06:50:47;;;;;;;20.03;11.97;;;11.50;68.30;;;;;;5069509;28;20219;-84
2022/04/29 06:53:13;;;;;;;22.00;12.40;;;11.80;66.30;;;;;;5060245;28;20427;-84
2022/04/29 06:55:40;;;;;;;17.90;12.20;;;11.70;66.60;;;;;;5063156;28;20406;-84
2022/04/29 06:58:06;;;;;;;17.38;12.73;;;11.40;67.90;;;;;;5079469;28;20623;-85
2022/04/29 07:00:33;;;;;;;21.05;11.40;;;11.40;68.40;;;;;;5062828;28;20204;-87
2022/04/29 07:03:02;;;;;;;23.15;12.32;;;11.60;67.30;;;;;;5061932;28;20210;-85
2022/04/29 07:05:33;;;;;;;18.50;12.90;;;11.50;67.40;;;;;;5062849;28;20181;-87
2022/04/29 07:07:59;;;;;;;19.17;10.95;;;11.30;68.40;;;;;;5082835;28;20157;-85
2022/04/29 07:10:25;;;;;;;20.15;12.00;;;11.50;68.20;;;;;;5066068;28;20220;-85
2022/04/29 07:12:51;;;;;;;18.20;11.80;;;11.50;68.20;;;;;;5069988;28;20222;-85
2022/04/29 07:15:17;;;;;;;15.00;11.07;;;11.50;68.00;;;;;;5067336;28;20927;-85
2022/04/29 07:17:45;;;;;;;26.70;13.77;;;11.40;68.00;;;;;;5083010;28;20415;-85
2022/04/29 07:20:13;;;;;;;22.02;13.77;;;11.30;69.30;;;;;;5065707;28;20477;-85
2022/04/29 07:22:41;;;;;;;21.27;12.95;;;11.20;70.40;;;;;;5071601;28;20184;-87
2022/04/29 07:25:09;;;;;;;22.13;12.38;;;11.50;67.80;;;;;;5071468;28;20207;-86
2022/04/29 07:27:38;;;;;;;17.35;11.68;;;11.50;68.50;;;;;;5070360;28;20249;-87
2022/04/29 07:30:05;;;;;;;19.70;12.68;;;11.50;67.20;;;;;;5076008;28;20204;-88
2022/04/29 07:32:31;;;;;;;22.83;12.15;;;11.40;68.40;;;;;;5076187;28;20263;-87
2022/04/29 07:43:11;;;;;;;21.92;12.68;;;11.80;66.30;;;;;;5089039;28;20172;-85
2022/04/29 07:45:38;;;;;;;22.90;13.93;;;11.90;65.90;;;;;;5083503;28;20187;-85
2022/04/29 07:48:05;;;;;;;19.83;12.20;;;11.80;67.10;;;;;;5063495;28;20199;-86
2022/04/29 07:50:35;;;;;;;18.23;12.73;;;11.80;67.10;;;;;;5063144;28;20212;-85
2022/04/29 07:53:03;;;;;;;14.55;11.20;;;11.60;68.30;;;;;;5061952;28;20661;-85
2022/04/29 07:55:29;;;;;;;21.20;12.82;;;11.70;68.70;;;;;;5060540;28;20188;-84
2022/04/29 07:57:55;;;;;;;20.85;13.98;;;11.70;68.80;;;;;;5059146;28;20208;-86
2022/04/29 08:00:22;;;;;;;20.98;13.50;;;11.70;68.70;;;;;;5060235;28;20200;-85
2022/04/29 08:02:48;;;;;;;18.05;12.40;;;11.70;68.90;;;;;;5062701;28;20184;-85
2022/04/29 08:05:14;;;;;;;19.60;12.70;;;11.60;68.00;;;;;;5062364;28;20180;-85
2022/04/29 08:07:40;;;;;;;20.53;14.27;;;11.80;66.80;;;;;;5080640;28;20215;-84
2022/04/29 08:10:06;;;;;;;19.43;12.93;;;11.60;68.00;;;;;;5062118;28;20471;-84
2022/04/29 08:12:32;;;;;;;17.48;12.45;;;11.60;67.50;;;;;;5062790;28;20478;-85
2022/04/29 08:14:59;;;;;;;18.67;12.98;;;11.70;66.80;;;;;;5063615;28;20192;-84
2022/04/29 08:17:28;;;;;;;18.02;12.35;;;11.70;67.00;;;;;;5045528;28;20265;-86
2022/04/29 08:19:54;;;;;;;20.75;12.95;;;11.80;66.50;;;;;;5059805;28;20204;-85
2022/04/29 08:22:20;;;;;;;21.30;13.75;;;11.70;66.70;;;;;;5076414;28;20187;-85
2022/04/29 08:24:46;;;;;;;23.92;15.07;;;11.60;67.30;;;;;;5058582;28;20184;-85
2022/04/29 08:27:13;;;;;;;27.80;14.38;;;11.70;67.10;;;;;;5058211;28;20187;-84
2022/04/29 08:29:39;;;;;;;30.58;13.18;;;11.80;66.10;;;;;;5057484;28;20298;-85
2022/04/29 08:32:05;;;;;;;20.30;14.00;;;11.90;66.30;;;;;;5075782;28;20175;-85
2022/04/29 08:34:33;;;;;;;22.00;15.45;;;12.00;65.80;;;;;;5076957;28;20181;-84
2022/04/29 08:37:03;;;;;;;22.95;12.55;;;12.00;65.60;;;;;;5059479;28;20238;-85
2022/04/29 08:39:30;;;;;;;18.02;12.70;;;12.10;65.40;;;;;;5059932;28;20786;-85
2022/04/29 08:42:01;;;;;;;28.08;14.50;;;12.10;65.40;;;;;;5060322;28;20184;-85
2022/04/29 08:44:31;;;;;;;22.90;14.63;;;12.20;64.70;;;;;;5071634;28;20195;-84
2022/04/29 08:46:58;;;;;;;27.10;14.88;;;12.20;64.50;;;;;;5062834;28;20165;-86
2022/04/29 08:49:26;;;;;;;18.00;13.18;;;12.10;65.50;;;;;;5061577;28;20208;-86
2022/04/29 08:51:53;;;;;;;23.70;14.95;;;12.00;65.60;;;;;;5053857;28;20200;-87
2022/04/29 09:00:01;;;;;;;23.92;14.32;;;12.10;65.50;;;;;;5074086;28;20204;-86
2022/04/29 09:02:38;;;;;;;19.90;13.98;;;12.10;66.00;;;;;;5055331;28;20183;-87
2022/04/29 09:05:10;;;;;;;23.45;15.15;;;12.20;65.50;;;;;;5073718;28;20157;-86
2022/04/29 09:07:55;;;;;;;29.45;15.38;;;12.20;65.40;;;;;;5055783;28;20187;-86
2022/04/29 09:10:22;;;;;;;25.48;14.63;;;12.00;66.70;;;;;;5073338;28;20223;-87
2022/04/29 09:12:51;;;;;;;23.17;14.30;;;12.10;66.50;;;;;;5089254;28;20184;-87
2022/04/29 09:15:17;;;;;;;21.33;15.20;;;12.30;65.70;;;;;;5058406;28;20717;-86
2022/04/29 09:17:48;;;;;;;21.17;13.48;;;12.40;64.80;;;;;;5075456;28;20203;-86
2022/04/29 09:20:21;;;;;;;23.55;15.30;;;12.30;64.60;;;;;;5060427;28;20196;-87
2022/04/29 09:22:52;;;;;;;26.00;14.63;;;12.30;64.50;;;;;;5078201;28;20168;-87
2022/04/29 09:25:18;;;;;;;33.95;16.27;;;12.40;64.60;;;;;;5059675;28;20180;-86
2022/04/29 09:28:02;;;;;;;25.17;15.05;;;12.40;64.80;;;;;;5057923;28;20237;-87
2022/04/29 09:30:38;;;;;;;20.05;14.13;;;12.50;64.20;;;;;;5061425;28;20310;-87
2022/04/29 09:33:21;;;;;;;34.15;15.70;;;12.60;63.70;;;;;;5063235;28;20212;-86
2022/04/29 09:35:49;;;;;;;21.67;15.40;;;12.60;63.80;;;;;;5065100;28;20179;-87
2022/04/29 09:41:00;;;;;;;24.40;15.18;;;12.70;64.00;;;;;;5081764;28;20210;-87
2022/04/29 09:43:36;;;;;;;32.97;15.50;;;12.90;63.80;;;;;;5076694;28;20184;-86
2022/04/29 09:46:12;;;;;;;23.15;14.43;;;12.90;63.70;;;;;;5057833;28;20180;-87
2022/04/29 09:48:53;;;;;;;26.63;15.32;;;13.00;62.70;;;;;;5062099;28;20524;-87
2022/04/29 09:51:44;;;;;;;22.85;15.30;;;13.10;62.50;;;;;;5057583;28;20245;-87
2022/04/29 09:54:19;;;;;;;23.88;15.93;;;13.20;62.20;;;;;;5056642;28;20556;-86
2022/04/29 09:56:47;;;;;;;21.23;14.60;;;13.20;62.20;;;;;;5045436;28;20180;-87
2022/04/29 09:59:13;;;;;;;24.60;15.88;;;13.30;61.60;;;;;;5044855;28;20173;-87
2022/04/29 10:01:42;;;;;;;22.50;14.63;;;13.10;62.10;;;;;;5045674;28;20232;-88
2022/04/29 10:04:08;;;;;;;20.70;14.70;;;13.00;62.50;;;;;;5051937;28;20197;-87
2022/04/29 10:06:38;;;;;;;23.38;14.23;;;13.00;63.20;;;;;;5092669;28;20223;-87
2022/04/29 10:09:04;;;;;;;23.77;15.02;;;13.30;62.50;;;;;;5079453;28;20215;-88
2022/04/29 10:11:34;;;;;;;39.58;15.85;;;13.10;63.70;;;;;;5096716;28;20207;-87
2022/04/29 10:14:02;;;;;;;21.27;15.57;;;13.10;64.20;;;;;;5100764;28;20203;-87
2022/04/29 10:16:32;;;;;;;29.17;15.38;;;13.10;64.90;;;;;;5117451;28;20184;-88
2022/04/29 10:21:48;;;;;;;23.73;16.08;;;13.20;64.30;;;;;;5106905;28;20207;-86
2022/04/29 10:24:14;;;;;;;24.75;15.30;;;13.70;63.00;;;;;;5104955;28;20179;-87
2022/04/29 10:26:41;;;;;;;28.00;16.13;;;13.60;63.20;;;;;;5083820;28;20172;-87
2022/04/29 10:29:08;;;;;;;22.77;14.18;;;13.50;63.30;;;;;;5099882;28;20438;-86
2022/04/29 10:31:33;;;;;;;25.98;16.48;;;13.50;63.40;;;;;;5064805;28;20264;-86
2022/04/29 10:34:28;;;;;;;21.37;15.50;;;13.70;63.10;;;;;;5063815;28;20204;-87
2022/04/29 10:36:54;;;;;;;33.17;17.05;;;14.10;61.10;;;;;;5055335;28;20650;-87
2022/04/29 10:39:22;;;;;;;21.55;14.70;;;13.80;62.00;;;;;;5082763;28;20196;-87
2022/04/29 10:42:18;;;;;;;23.27;15.60;;;14.10;61.30;;;;;;5062141;28;20210;-86
2022/04/29 10:45:00;;;;;;;28.00;16.50;;;14.60;58.60;;;;;;5049354;28;20248;-86
2022/04/29 10:47:31;;;;;;;22.55;15.30;;;14.30;60.00;;;;;;5062411;28;20184;-88
2022/04/29 10:50:31;;;;;;;23.35;15.35;;;14.50;59.50;;;;;;5080061;28;20787;-86
2022/04/29 10:53:02;;;;;;;27.05;15.63;;;14.60;59.70;;;;;;5074849;28;20172;-86
2022/04/29 10:55:28;;;;;;;27.10;16.25;;;15.20;57.00;;;;;;5074898;28;20706;-86
2022/04/29 10:58:17;;;;;;;25.30;15.57;;;15.50;55.80;;;;;;5057630;28;20180;-86
2022/04/29 11:01:11;;;;;;;25.90;17.05;;;15.50;55.50;;;;;;5058415;28;20537;-85
2022/04/29 11:03:38;;;;;;;20.85;15.60;;;15.00;57.10;;;;;;5055915;28;20181;-86
2022/04/29 11:06:14;;;;;;;21.55;16.48;;;15.00;56.70;;;;;;5054695;28;20281;-85
2022/04/29 11:08:42;;;;;;;25.80;16.75;;;15.10;56.30;;;;;;5076889;28;20180;-85
2022/04/29 11:11:09;;;;;;;24.38;16.13;;;15.10;56.40;;;;;;5077283;28;20204;-84
2022/04/29 11:13:42;;;;;;;20.30;15.20;;;15.20;55.80;;;;;;5079903;28;20210;-85
2022/04/29 11:16:14;;;;;;;20.05;15.35;;;15.30;55.60;;;;;;5079814;28;20172;-84
2022/04/29 11:18:42;;;;;;;18.75;15.32;;;15.00;56.30;;;;;;5097396;28;20172;-85
2022/04/29 11:26:43;;;;;;;25.25;15.45;;;15.10;56.50;;;;;;5096527;28;20179;-84
2022/04/29 11:29:11;;;;;;;24.77;16.60;;;15.20;56.30;;;;;;5078180;28;20246;-85
2022/04/29 11:31:38;;;;;;;27.58;17.40;;;15.30;56.20;;;;;;5077846;28;20677;-85
2022/04/29 11:34:07;;;;;;;25.33;15.60;;;15.00;56.90;;;;;;5077110;28;20180;-85
2022/04/29 11:36:33;;;;;;;27.65;16.73;;;14.90;57.60;;;;;;5078432;28;20263;-85
2022/04/29 11:38:59;;;;;;;26.27;16.33;;;15.20;57.00;;;;;;5096550;28;20165;-85
2022/04/29 11:41:27;;;;;;;26.90;16.50;;;15.50;55.20;;;;;;5067026;28;20192;-85
2022/04/29 11:43:54;;;;;;;19.70;15.07;;;15.70;54.50;;;;;;5052185;28;20195;-84
2022/04/29 11:46:21;;;;;;;26.02;17.17;;;15.70;54.30;;;;;;5057836;28;20188;-85
2022/04/29 11:49:05;;;;;;;20.13;15.00;;;15.80;54.20;;;;;;5090811;28;20238;-85
2022/04/29 11:51:30;;;;;;;24.15;16.45;;;15.70;53.60;;;;;;5060774;28;20204;-84
2022/04/29 11:54:03;;;;;;;26.50;15.83;;;15.80;54.00;;;;;;5058352;28;20176;-84
2022/04/29 11:56:35;;;;;;;22.98;15.40;;;15.80;54.20;;;;;;5057868;28;20267;-87
2022/04/29 11:59:02;;;;;;;21.52;15.32;;;15.70;55.90;;;;;;5057040;28;20722;-85
2022/04/29 12:01:29;;;;;;;26.67;16.67;;;15.50;56.20;;;;;;5056390;28;20197;-86
2022/04/29 12:03:55;;;;;;;25.38;17.70;;;15.50;56.60;;;;;;5056935;28;20671;-87
2022/04/29 12:06:21;;;;;;;23.40;15.40;;;15.70;55.60;;;;;;5058241;28;20255;-86
2022/04/29 12:08:46;;;;;;;21.57;16.90;;;16.00;54.50;;;;;;5059351;28;20181;-86
2022/04/29 12:11:21;;;;;;;22.83;16.00;;;16.00;53.90;;;;;;5062263;28;20208;-86
2022/04/29 12:13:46;;;;;;;22.33;15.25;;;15.90;54.60;;;;;;5060837;28;20226;-87
2022/04/29 12:16:12;;;;;;;21.37;16.70;;;16.10;54.00;;;;;;5057591;28;20652;-86
2022/04/29 12:18:43;;;;;;;19.73;13.70;;;15.90;55.10;;;;;;5057679;28;20176;-87
2022/04/29 12:21:10;;;;;;;23.77;14.82;;;16.20;53.60;;;;;;5057366;28;20664;-87
2022/04/29 12:24:05;;;;;;;28.58;16.65;;;16.50;52.70;;;;;;5056976;28;20212;-87
2022/04/29 12:26:32;;;;;;;20.70;15.57;;;16.60;52.10;;;;;;5058017;28;20317;-87
2022/04/29 12:28:58;;;;;;;21.20;13.98;;;16.40;52.50;;;;;;5059462;28;20208;-89
2022/04/29 12:37:06;;;;;;;20.98;14.15;;;16.90;51.40;;;;;;5076956;28;20245;-89
2022/04/29 12:39:43;;;;;;;18.65;13.23;;;16.70;51.10;;;;;;5061770;28;20180;-89
2022/04/29 12:42:11;;;;;;;29.02;16.92;;;16.70;52.00;;;;;;5067593;28;20183;-89
2022/04/29 12:45:14;;;;;;;16.85;15.07;;;16.60;52.40;;;;;;5060774;28;20699;-89
2022/04/29 12:47:49;;;;;;;22.40;15.13;;;16.40;53.30;;;;;;5050205;28;20175;-88
2022/04/29 12:50:38;;;;;;;25.30;16.38;;;16.30;53.60;;;;;;5056401;28;20659;-89
2022/04/29 12:53:09;;;;;;;24.10;16.83;;;16.70;52.10;;;;;;5039556;28;20702;-89
2022/04/29 12:55:53;;;;;;;15.88;14.15;;;16.80;50.10;;;;;;5075986;28;20641;-89
2022/04/29 12:58:26;;;;;;;25.67;15.50;;;16.80;50.20;;;;;;5087107;28;20664;-90
2022/04/29 13:00:55;;;;;;;26.02;15.40;;;16.60;51.60;;;;;;5092773;28;20255;-90
2022/04/29 13:03:23;;;;;;;22.55;16.27;;;16.60;51.40;;;;;;5074151;28;20661;-89
2022/04/29 13:05:49;;;;;;;26.30;15.82;;;16.60;52.10;;;;;;5059764;28;20598;-89
2022/04/29 13:08:16;;;;;;;23.85;15.30;;;16.60;52.80;;;;;;5056973;28;20640;-90
2022/04/29 13:10:50;;;;;;;23.48;15.75;;;16.70;52.40;;;;;;5061448;28;20699;-89
2022/04/29 13:13:17;;;;;;;26.83;16.25;;;16.60;53.00;;;;;;5062850;28;20177;-89
2022/04/29 13:16:05;;;;;;;22.95;14.20;;;16.60;52.50;;;;;;5060766;28;20271;-89